createdAt,value
2018-04-08T00:02:09.495Z,63.53
2018-04-08T00:04:37.002Z,64.08
2018-04-08T00:07:04.513Z,64.31
2018-04-08T00:09:32.004Z,64.22
2018-04-08T00:11:59.486Z,64.07
2018-04-08T00:14:27.006Z,64.63
2018-04-08T00:16:54.491Z,65.60
2018-04-08T00:19:21.974Z,65.60
2018-04-08T00:21:49.491Z,65.69
2018-04-08T00:24:16.998Z,65.76
2018-04-08T00:26:44.486Z,66.04
2018-04-08T00:29:11.998Z,65.60
2018-04-08T00:31:39.489Z,65.61
2018-04-08T00:34:06.976Z,65.67
2018-04-08T00:36:34.535Z,65.45
2018-04-08T00:39:02.030Z,65.62
2018-04-08T00:41:29.518Z,66.38
2018-04-08T00:43:57.043Z,67.12
2018-04-08T00:46:24.543Z,66.97
2018-04-08T00:48:52.036Z,67.00
2018-04-08T00:51:19.538Z,66.78
2018-04-08T00:53:47.021Z,66.56
2018-04-08T00:56:14.506Z,66.47
2018-04-08T00:58:42.026Z,66.54
2018-04-08T01:01:09.523Z,66.58
2018-04-08T01:03:37.020Z,67.28
2018-04-08T01:06:04.558Z,67.41
2018-04-08T01:08:32.038Z,67.01
2018-04-08T01:10:59.539Z,67.05
2018-04-08T01:13:27.063Z,67.23
2018-04-08T01:15:54.547Z,67.57
2018-04-08T01:18:22.039Z,67.75
2018-04-08T01:20:49.835Z,68.02
2018-04-08T01:23:17.327Z,68.18
2018-04-08T01:25:44.819Z,67.97
2018-04-08T01:28:12.339Z,67.91
2018-04-08T01:30:39.826Z,67.83
2018-04-08T01:33:07.305Z,67.75
2018-04-08T01:35:34.848Z,67.71
2018-04-08T01:38:02.339Z,67.69
2018-04-08T01:40:29.857Z,67.95
2018-04-08T01:42:57.371Z,68.25
2018-04-08T01:45:24.854Z,68.76
2018-04-08T01:47:52.337Z,68.72
2018-04-08T01:50:20.015Z,68.39
2018-04-08T01:52:47.561Z,68.05
2018-04-08T01:55:15.068Z,67.75
2018-04-08T01:57:43.542Z,68.21
2018-04-08T02:00:11.026Z,68.12
2018-04-08T02:02:38.508Z,68.57
2018-04-08T02:05:06.021Z,69.09
2018-04-08T02:07:33.510Z,69.30
2018-04-08T02:10:01.001Z,70.04
2018-04-08T02:12:28.514Z,70.50
2018-04-08T02:14:56.003Z,70.59
2018-04-08T02:17:23.519Z,70.24
2018-04-08T02:19:51.039Z,70.23
2018-04-08T02:22:18.525Z,70.74
2018-04-08T02:24:46.006Z,70.67
2018-04-08T02:27:13.518Z,71.07
2018-04-08T02:29:41.007Z,71.03
2018-04-08T02:32:08.490Z,70.80
2018-04-08T02:34:35.998Z,70.91
2018-04-08T02:37:03.492Z,70.81
2018-04-08T02:39:30.977Z,70.81
2018-04-08T02:41:58.499Z,71.33
2018-04-08T02:44:26.029Z,71.69
2018-04-08T02:46:53.493Z,72.04
2018-04-08T02:49:21.006Z,72.80
2018-04-08T02:51:48.491Z,73.30
2018-04-08T02:54:15.980Z,73.59
2018-04-08T02:56:43.490Z,74.19
2018-04-08T02:59:10.980Z,74.57
2018-04-08T03:01:38.466Z,73.48
2018-04-08T03:04:05.983Z,74.09
2018-04-08T03:06:33.470Z,74.09
2018-04-08T03:09:00.968Z,73.40
2018-04-08T03:11:28.498Z,74.09
2018-04-08T03:13:55.998Z,74.55
2018-04-08T03:16:23.482Z,74.02
2018-04-08T03:18:51.954Z,73.50
2018-04-08T03:21:19.443Z,73.43
2018-04-08T03:23:46.925Z,73.40
2018-04-08T03:26:14.436Z,73.94
2018-04-08T03:28:41.951Z,74.35
2018-04-08T03:31:09.452Z,74.80
2018-04-08T03:33:36.972Z,74.76
2018-04-08T03:36:04.462Z,74.21
2018-04-08T03:38:31.947Z,75.08
2018-04-08T03:40:59.462Z,75.04
2018-04-08T03:43:27.002Z,73.72
2018-04-08T03:45:54.541Z,72.99
2018-04-08T03:48:22.046Z,72.81
2018-04-08T03:50:49.558Z,73.39
2018-04-08T03:53:17.041Z,74.07
2018-04-08T03:55:44.551Z,74.11
2018-04-08T03:58:12.042Z,74.29
2018-04-08T04:00:39.547Z,74.83
2018-04-08T04:03:07.064Z,74.76
2018-04-08T04:05:34.561Z,76.19
2018-04-08T04:08:02.055Z,75.72
2018-04-08T04:10:29.595Z,75.89
2018-04-08T04:12:57.079Z,76.22
2018-04-08T04:15:24.562Z,76.56
2018-04-08T04:17:52.071Z,76.79
2018-04-08T04:20:31.356Z,77.23
2018-04-08T04:23:10.585Z,77.89
2018-04-08T04:28:36.962Z,76.83
2018-04-08T04:31:04.455Z,76.25
2018-04-08T04:33:31.951Z,76.73
2018-04-08T04:35:59.471Z,76.90
2018-04-08T04:38:26.958Z,76.34
2018-04-08T04:40:54.481Z,76.01
2018-04-08T04:43:21.987Z,75.65
2018-04-08T04:45:49.482Z,74.90
2018-04-08T04:48:16.977Z,74.27
2018-04-08T04:50:44.496Z,74.14
2018-04-08T04:53:11.987Z,73.76
2018-04-08T04:55:39.487Z,73.05
2018-04-08T04:58:07.003Z,73.06
2018-04-08T05:00:34.490Z,72.37
2018-04-08T05:03:01.983Z,71.93
2018-04-08T05:05:29.499Z,71.65
2018-04-08T05:07:57.051Z,71.12
2018-04-08T05:10:24.524Z,70.83
2018-04-08T05:12:52.034Z,70.09
2018-04-08T05:15:19.524Z,69.25
2018-04-08T05:17:47.006Z,68.63
2018-04-08T05:20:14.523Z,68.05
2018-04-08T05:22:42.006Z,67.33
2018-04-08T05:25:09.497Z,66.52
2018-04-08T05:27:37.006Z,65.00
2018-04-08T05:30:04.495Z,64.48
2018-04-08T05:32:31.993Z,64.52
2018-04-08T05:34:59.540Z,65.24
2018-04-08T05:37:27.018Z,65.31
2018-04-08T05:39:54.511Z,65.15
2018-04-08T05:42:22.017Z,65.05
2018-04-08T05:44:49.515Z,64.63
2018-04-08T05:47:17.011Z,64.11
2018-04-08T05:49:44.517Z,64.52
2018-04-08T05:52:12.013Z,63.47
2018-04-08T05:54:39.518Z,62.01
2018-04-08T05:57:07.039Z,62.14
2018-04-08T05:59:34.526Z,61.00
2018-04-08T06:02:02.036Z,61.13
2018-04-08T06:04:29.558Z,60.98
2018-04-08T06:06:57.047Z,58.04
2018-04-08T06:09:24.538Z,56.16
2018-04-08T06:11:52.051Z,54.38
2018-04-08T06:14:19.555Z,53.11
2018-04-08T06:16:47.063Z,52.77
2018-04-08T06:19:14.574Z,52.32
2018-04-08T06:21:42.090Z,51.97
2018-04-08T06:24:09.583Z,51.74
2018-04-08T06:26:37.119Z,50.72
2018-04-08T06:29:04.667Z,49.43
2018-04-08T06:31:32.162Z,48.85
2018-04-08T06:33:59.684Z,48.40
2018-04-08T06:36:27.169Z,49.27
2018-04-08T06:38:54.655Z,47.58
2018-04-08T06:41:23.083Z,47.02
2018-04-08T06:43:50.601Z,46.98
2018-04-08T06:46:18.086Z,46.64
2018-04-08T06:48:45.603Z,44.23
2018-04-08T06:51:13.094Z,43.87
2018-04-08T06:53:40.591Z,44.16
2018-04-08T06:56:08.123Z,45.38
2018-04-08T06:58:35.614Z,44.77
2018-04-08T07:01:03.102Z,43.38
2018-04-08T07:03:30.620Z,42.94
2018-04-08T07:05:59.007Z,43.65
2018-04-08T07:08:26.525Z,42.00
2018-04-08T07:10:54.030Z,44.75
2018-04-08T07:13:21.514Z,44.35
2018-04-08T07:15:48.994Z,43.67
2018-04-08T07:18:16.530Z,43.63
2018-04-08T07:20:44.019Z,42.21
2018-04-08T07:23:11.511Z,42.71
2018-04-08T07:25:39.023Z,41.28
2018-04-08T07:28:06.509Z,40.13
2018-04-08T07:30:34.059Z,40.96
2018-04-08T07:33:01.578Z,41.35
2018-04-08T07:35:29.066Z,40.46
2018-04-08T07:37:56.551Z,40.01
2018-04-08T07:40:24.079Z,39.70
2018-04-08T07:42:51.566Z,39.67
2018-04-08T07:45:19.046Z,36.58
2018-04-08T07:47:46.550Z,38.68
2018-04-08T07:50:14.035Z,39.04
2018-04-08T07:52:41.518Z,38.28
2018-04-08T07:55:09.034Z,37.67
2018-04-08T07:57:36.525Z,38.54
2018-04-08T08:00:04.072Z,38.23
2018-04-08T08:02:31.596Z,38.08
2018-04-08T08:04:59.103Z,37.38
2018-04-08T08:07:26.598Z,38.55
2018-04-08T08:09:54.120Z,38.08
2018-04-08T08:12:21.637Z,38.32
2018-04-08T08:14:49.140Z,38.31
2018-04-08T08:17:16.653Z,37.00
2018-04-08T08:19:44.142Z,34.44
2018-04-08T08:22:11.682Z,32.10
2018-04-08T08:24:39.202Z,30.56
2018-04-08T08:27:06.697Z,31.76
2018-04-08T08:29:34.208Z,33.24
2018-04-08T08:32:01.746Z,31.80
2018-04-08T08:34:29.248Z,32.91
2018-04-08T08:36:57.065Z,34.67
2018-04-08T08:39:24.679Z,35.58
2018-04-08T08:41:52.176Z,34.42
2018-04-08T08:44:19.670Z,34.24
2018-04-08T08:46:47.193Z,36.09
2018-04-08T08:49:14.691Z,35.26
2018-04-08T08:51:42.195Z,35.05
2018-04-08T08:54:09.749Z,33.90
2018-04-08T08:56:37.239Z,33.70
2018-04-08T08:59:04.747Z,32.98
2018-04-08T09:01:32.280Z,34.36
2018-04-08T09:03:59.776Z,33.82
2018-04-08T09:06:27.278Z,33.84
2018-04-08T09:08:54.801Z,35.02
2018-04-08T09:11:22.367Z,35.22
2018-04-08T09:13:49.866Z,34.63
2018-04-08T09:16:17.395Z,35.29
2018-04-08T09:18:44.886Z,35.06
2018-04-08T09:21:18.048Z,33.15
2018-04-08T09:23:47.400Z,34.13
2018-04-08T09:26:14.926Z,33.27
2018-04-08T09:28:42.442Z,32.92
2018-04-08T09:31:09.939Z,33.28
2018-04-08T09:33:37.434Z,32.44
2018-04-08T09:36:04.995Z,34.98
2018-04-08T09:38:32.486Z,33.23
2018-04-08T09:40:59.985Z,32.14
2018-04-08T09:43:27.507Z,33.66
2018-04-08T09:45:54.999Z,33.94
2018-04-08T09:48:22.494Z,33.18
2018-04-08T09:50:50.015Z,30.19
2018-04-08T09:53:18.747Z,29.42
2018-04-08T09:55:46.251Z,31.13
2018-04-08T09:58:14.274Z,32.10
2018-04-08T10:03:50.555Z,28.53
2018-04-08T10:06:18.051Z,29.42
2018-04-08T10:08:45.545Z,30.28
2018-04-08T10:11:13.065Z,32.17
2018-04-08T10:13:40.564Z,31.62
2018-04-08T10:16:08.050Z,30.87
2018-04-08T10:18:35.574Z,27.99
2018-04-08T10:21:03.073Z,26.47
2018-04-08T10:23:30.567Z,27.91
2018-04-08T10:25:58.096Z,29.62
2018-04-08T10:28:25.583Z,30.65
2018-04-08T10:30:53.090Z,28.40
2018-04-08T10:33:20.607Z,27.10
2018-04-08T10:35:48.104Z,27.18
2018-04-08T10:38:15.591Z,29.29
2018-04-08T10:40:43.114Z,28.37
2018-04-08T10:43:10.623Z,25.08
2018-04-08T10:45:38.123Z,23.43
2018-04-08T10:48:05.633Z,25.55
2018-04-08T10:50:33.126Z,29.19
2018-04-08T10:53:00.616Z,28.69
2018-04-08T10:55:28.126Z,27.95
2018-04-08T10:57:55.619Z,28.04
2018-04-08T11:00:23.114Z,26.79
2018-04-08T11:02:50.626Z,27.71
2018-04-08T11:05:18.122Z,30.69
2018-04-08T11:07:45.622Z,30.85
2018-04-08T11:10:13.144Z,29.61
2018-04-08T11:12:40.654Z,31.71
2018-04-08T11:15:08.150Z,31.86
2018-04-08T11:17:35.666Z,32.35
2018-04-08T11:20:03.164Z,31.33
2018-04-08T11:22:30.667Z,30.54
2018-04-08T11:24:58.183Z,33.13
2018-04-08T11:27:25.665Z,33.54
2018-04-08T11:29:53.160Z,33.91
2018-04-08T11:32:20.669Z,35.70
2018-04-08T11:34:48.172Z,35.56
2018-04-08T11:37:15.664Z,33.12
2018-04-08T11:39:43.183Z,34.42
2018-04-08T11:42:10.678Z,36.44
2018-04-08T11:44:38.209Z,36.28
2018-04-08T11:47:05.725Z,35.36
2018-04-08T11:49:33.242Z,35.81
2018-04-08T11:52:00.730Z,37.83
2018-04-08T11:54:28.271Z,35.85
2018-04-08T11:56:55.758Z,33.32
2018-04-08T11:59:23.250Z,32.19
2018-04-08T12:01:50.771Z,33.91
2018-04-08T12:04:18.266Z,34.27
2018-04-08T12:06:45.769Z,35.81
2018-04-08T12:09:13.290Z,34.54
2018-04-08T12:11:40.783Z,34.88
2018-04-08T12:14:08.279Z,34.23
2018-04-08T12:16:35.839Z,34.48
2018-04-08T12:19:03.337Z,38.06
2018-04-08T12:21:31.730Z,39.40
2018-04-08T12:23:59.274Z,39.06
2018-04-08T12:26:26.762Z,39.67
2018-04-08T12:28:54.315Z,39.89
2018-04-08T12:31:21.850Z,39.39
2018-04-08T12:33:49.328Z,39.87
2018-04-08T12:36:16.835Z,39.96
2018-04-08T12:38:44.359Z,40.66
2018-04-08T12:41:11.862Z,40.61
2018-04-08T12:43:39.364Z,41.24
2018-04-08T12:46:06.893Z,40.86
2018-04-08T12:48:34.404Z,40.45
2018-04-08T12:51:01.927Z,40.83
2018-04-08T12:53:29.455Z,39.34
2018-04-08T12:55:56.951Z,39.56
2018-04-08T12:58:24.523Z,39.49
2018-04-08T13:00:52.106Z,39.54
2018-04-08T13:03:19.589Z,40.11
2018-04-08T13:05:47.087Z,39.73
2018-04-08T13:08:14.602Z,38.87
2018-04-08T13:10:42.086Z,39.60
2018-04-08T13:13:09.573Z,38.62
2018-04-08T13:15:37.101Z,39.17
2018-04-08T13:18:04.594Z,39.17
2018-04-08T13:20:32.084Z,40.08
2018-04-08T13:22:59.603Z,40.07
2018-04-08T13:25:27.135Z,39.02
2018-04-08T13:27:54.641Z,39.05
2018-04-08T13:30:22.159Z,39.22
2018-04-08T13:32:49.677Z,40.22
2018-04-08T13:35:17.250Z,38.43
2018-04-08T13:37:44.790Z,39.35
2018-04-08T13:40:12.282Z,38.83
2018-04-08T13:42:39.778Z,38.32
2018-04-08T13:45:07.295Z,37.58
2018-04-08T13:47:34.803Z,37.52
2018-04-08T13:50:02.309Z,37.18
2018-04-08T13:52:29.829Z,38.09
2018-04-08T13:54:57.330Z,37.31
2018-04-08T13:57:24.822Z,37.69
2018-04-08T13:59:52.352Z,38.18
2018-04-08T14:02:19.838Z,38.07
2018-04-08T14:04:47.321Z,37.30
2018-04-08T14:07:14.837Z,37.57
2018-04-08T14:09:42.335Z,38.30
2018-04-08T14:12:09.832Z,38.43
2018-04-08T14:14:37.354Z,39.01
2018-04-08T14:17:04.849Z,37.84
2018-04-08T14:19:32.346Z,38.73
2018-04-08T14:21:59.873Z,37.67
2018-04-08T14:24:27.414Z,38.00
2018-04-08T14:26:54.890Z,37.57
2018-04-08T14:29:22.425Z,38.20
2018-04-08T14:31:49.909Z,37.33
2018-04-08T14:34:17.393Z,37.65
2018-04-08T14:36:44.912Z,37.64
2018-04-08T14:39:12.401Z,37.97
2018-04-08T14:41:40.419Z,38.25
2018-04-08T14:44:07.942Z,37.20
2018-04-08T14:46:35.437Z,37.72
2018-04-08T14:49:02.921Z,38.56
2018-04-08T14:51:30.435Z,37.17
2018-04-08T14:53:57.936Z,37.68
2018-04-08T14:56:25.430Z,38.58
2018-04-08T14:58:52.943Z,37.14
2018-04-08T15:01:20.450Z,37.16
2018-04-08T15:03:47.944Z,37.20
2018-04-08T15:06:15.463Z,37.38
2018-04-08T15:08:42.955Z,37.44
2018-04-08T15:11:10.447Z,36.68
2018-04-08T15:13:37.962Z,37.68
2018-04-08T15:16:05.462Z,36.07
2018-04-08T15:18:33.003Z,36.75
2018-04-08T15:21:00.519Z,36.39
2018-04-08T15:23:28.032Z,36.20
2018-04-08T15:25:55.523Z,36.84
2018-04-08T15:28:23.042Z,36.54
2018-04-08T15:30:50.531Z,36.99
2018-04-08T15:33:18.037Z,37.20
2018-04-08T15:35:45.545Z,36.13
2018-04-08T15:38:13.026Z,36.45
2018-04-08T15:40:40.533Z,36.65
2018-04-08T15:43:08.056Z,36.71
2018-04-08T15:45:35.542Z,36.88
2018-04-08T15:48:03.027Z,36.19
2018-04-08T15:50:30.538Z,36.80
2018-04-08T15:52:58.033Z,37.12
2018-04-08T15:55:25.525Z,35.73
2018-04-08T15:57:53.030Z,36.04
2018-04-08T16:00:20.518Z,36.96
2018-04-08T16:02:48.055Z,36.58
2018-04-08T16:05:15.583Z,36.01
2018-04-08T16:07:43.079Z,36.96
2018-04-08T16:10:10.575Z,36.22
2018-04-08T16:12:38.088Z,36.58
2018-04-08T16:15:05.592Z,36.43
2018-04-08T16:17:33.074Z,36.50
2018-04-08T16:20:00.590Z,37.23
2018-04-08T16:22:28.086Z,36.59
2018-04-08T16:24:55.570Z,37.08
2018-04-08T16:27:23.094Z,36.17
2018-04-08T16:29:50.614Z,36.88
2018-04-08T16:32:18.108Z,36.51
2018-04-08T16:34:45.618Z,36.58
2018-04-08T16:37:13.121Z,36.37
2018-04-08T16:39:40.607Z,36.78
2018-04-08T16:42:08.132Z,37.45
2018-04-08T16:44:35.619Z,37.33
2018-04-08T16:47:03.095Z,36.70
2018-04-08T16:49:30.620Z,37.38
2018-04-08T16:51:58.108Z,37.10
2018-04-08T16:54:25.607Z,37.16
2018-04-08T16:56:53.111Z,37.54
2018-04-08T16:59:20.590Z,36.63
2018-04-08T17:01:48.066Z,37.02
2018-04-08T17:04:15.571Z,37.22
2018-04-08T17:06:43.079Z,37.12
2018-04-08T17:09:10.563Z,38.09
2018-04-08T17:11:38.079Z,37.54
2018-04-08T17:14:05.558Z,37.88
2018-04-08T17:16:33.032Z,37.78
2018-04-08T17:19:00.551Z,37.75
2018-04-08T17:21:28.038Z,38.79
2018-04-08T17:23:55.528Z,38.41
2018-04-08T17:26:23.051Z,38.41
2018-04-08T17:28:50.534Z,38.72
2018-04-08T17:31:18.044Z,38.81
2018-04-08T17:33:45.558Z,39.14
2018-04-08T17:36:13.058Z,39.15
2018-04-08T17:38:40.546Z,39.44
2018-04-08T17:41:08.051Z,40.20
2018-04-08T17:43:35.533Z,40.59
2018-04-08T17:46:03.014Z,40.88
2018-04-08T17:48:30.533Z,41.00
2018-04-08T17:50:58.054Z,41.04
2018-04-08T17:53:25.536Z,41.34
2018-04-08T17:55:53.048Z,41.80
2018-04-08T17:58:20.546Z,41.82
2018-04-08T18:00:48.034Z,42.02
2018-04-08T18:03:15.639Z,42.17
2018-04-08T18:05:43.122Z,42.68
2018-04-08T18:08:10.603Z,42.80
2018-04-08T18:10:38.124Z,43.15
2018-04-08T18:13:05.616Z,43.21
2018-04-08T18:15:33.102Z,43.32
2018-04-08T18:18:00.610Z,43.51
2018-04-08T18:20:28.093Z,43.31
2018-04-08T18:22:55.587Z,43.86
2018-04-08T18:25:23.106Z,43.94
2018-04-08T18:27:50.590Z,44.13
2018-04-08T18:30:18.092Z,44.79
2018-04-08T18:32:45.604Z,45.00
2018-04-08T18:35:13.090Z,45.61
2018-04-08T18:37:40.573Z,45.34
2018-04-08T18:40:08.086Z,45.77
2018-04-08T18:42:35.570Z,45.53
2018-04-08T18:45:03.050Z,45.65
2018-04-08T18:47:30.564Z,46.10
2018-04-08T18:49:58.057Z,45.83
2018-04-08T18:52:25.542Z,45.77
2018-04-08T18:54:53.049Z,45.65
2018-04-08T18:57:20.538Z,46.10
2018-04-08T18:59:48.023Z,46.11
2018-04-08T19:02:15.530Z,46.43
2018-04-08T19:04:43.043Z,46.76
2018-04-08T19:07:10.552Z,47.58
2018-04-08T19:09:38.095Z,47.74
2018-04-08T19:12:05.615Z,48.41
2018-04-08T19:14:38.718Z,48.33
2018-04-08T19:17:06.223Z,48.06
2018-04-08T19:19:33.721Z,48.67
2018-04-08T19:22:01.233Z,48.63
2018-04-08T19:24:28.722Z,48.77
2018-04-08T19:26:56.212Z,48.67
2018-04-08T19:29:23.726Z,49.72
2018-04-08T19:31:51.212Z,50.05
2018-04-08T19:34:18.701Z,50.46
2018-04-08T19:36:46.261Z,50.71
2018-04-08T19:39:13.743Z,50.68
2018-04-08T19:41:41.226Z,50.88
2018-04-08T19:44:08.733Z,50.97
2018-04-08T19:46:36.227Z,51.15
2018-04-08T19:49:03.750Z,51.74
2018-04-08T19:51:31.279Z,51.90
2018-04-08T19:53:58.772Z,52.13
2018-04-08T19:56:26.262Z,52.49
2018-04-08T19:58:53.778Z,52.72
2018-04-08T20:01:21.271Z,53.63
2018-04-08T20:03:48.754Z,53.88
2018-04-08T20:06:16.283Z,54.10
2018-04-08T20:08:43.787Z,54.02
2018-04-08T20:11:11.286Z,54.02
2018-04-08T20:13:38.793Z,53.84
2018-04-08T20:16:06.295Z,53.80
2018-04-08T20:18:33.777Z,54.63
2018-04-08T20:21:01.283Z,55.18
2018-04-08T20:23:28.767Z,55.44
2018-04-08T20:25:56.263Z,55.64
2018-04-08T20:28:23.775Z,56.04
2018-04-08T20:30:51.267Z,55.98
2018-04-08T20:33:18.749Z,55.92
2018-04-08T20:35:46.275Z,55.96
2018-04-08T20:38:13.764Z,55.85
2018-04-08T20:40:41.247Z,55.90
2018-04-08T20:43:09.255Z,56.83
2018-04-08T20:45:36.742Z,56.57
2018-04-08T20:48:04.231Z,56.58
2018-04-08T20:50:31.819Z,55.94
2018-04-08T20:52:59.322Z,55.86
2018-04-08T20:55:26.815Z,56.41
2018-04-08T20:57:54.331Z,56.23
2018-04-08T21:00:21.822Z,56.58
2018-04-08T21:02:49.307Z,56.53
2018-04-08T21:05:16.819Z,56.74
2018-04-08T21:07:44.316Z,57.14
2018-04-08T21:10:11.807Z,57.21
2018-04-08T21:12:39.342Z,57.77
2018-04-08T21:15:06.832Z,57.99
2018-04-08T21:17:34.318Z,58.47
2018-04-08T21:20:01.831Z,58.52
2018-04-08T21:22:29.317Z,59.03
2018-04-08T21:24:56.812Z,59.42
2018-04-08T21:27:24.326Z,59.86
2018-04-08T21:29:51.819Z,60.31
2018-04-08T21:32:19.305Z,60.13
2018-04-08T21:34:46.821Z,60.08
2018-04-08T21:37:14.313Z,60.25
2018-04-08T21:39:41.794Z,60.49
2018-04-08T21:42:09.315Z,61.05
2018-04-08T21:44:36.830Z,61.23
2018-04-08T21:47:04.324Z,61.49
2018-04-08T21:49:31.839Z,61.66
2018-04-08T21:51:59.327Z,61.87
2018-04-08T21:54:26.830Z,61.84
2018-04-08T21:56:54.346Z,62.18
2018-04-08T21:59:21.843Z,62.44
2018-04-08T22:01:49.340Z,62.49
2018-04-08T22:04:16.859Z,62.73
2018-04-08T22:06:44.349Z,62.86
2018-04-08T22:09:11.847Z,63.26
2018-04-08T22:11:39.358Z,63.34
2018-04-08T22:14:06.851Z,63.83
2018-04-08T22:16:34.357Z,64.30
2018-04-08T22:19:02.844Z,64.49
2018-04-08T22:21:30.401Z,64.74
2018-04-08T22:23:57.903Z,65.29
2018-04-08T22:26:25.426Z,65.70
2018-04-08T22:28:52.919Z,65.78
2018-04-08T22:31:20.415Z,65.63
2018-04-08T22:33:47.934Z,65.80
2018-04-08T22:36:15.427Z,65.96
2018-04-08T22:38:42.923Z,66.12
2018-04-08T22:41:10.446Z,66.56
2018-04-08T22:43:37.938Z,66.82
2018-04-08T22:46:05.440Z,67.11
2018-04-08T22:48:32.963Z,66.73
2018-04-08T22:51:00.459Z,66.92
2018-04-08T22:53:27.959Z,67.82
2018-04-08T22:55:55.474Z,68.07
2018-04-08T22:58:22.962Z,68.92
2018-04-08T23:00:50.452Z,69.03
2018-04-08T23:03:17.976Z,69.16
2018-04-08T23:05:45.470Z,69.65
2018-04-08T23:08:12.967Z,69.20
2018-04-08T23:10:40.478Z,68.82
2018-04-08T23:13:07.968Z,69.09
2018-04-08T23:15:35.454Z,68.63
2018-04-08T23:18:02.961Z,68.84
2018-04-08T23:20:30.474Z,69.90
2018-04-08T23:22:57.962Z,69.42
2018-04-08T23:25:25.491Z,70.22
2018-04-08T23:27:52.973Z,70.43
2018-04-08T23:30:20.458Z,70.00
2018-04-08T23:32:47.979Z,69.88
2018-04-08T23:35:15.475Z,70.45
2018-04-08T23:37:42.971Z,70.01
2018-04-08T23:40:10.482Z,69.79
2018-04-08T23:42:37.994Z,70.23
2018-04-08T23:45:05.515Z,70.24
2018-04-08T23:47:33.026Z,70.19
2018-04-08T23:50:00.538Z,70.12
2018-04-08T23:52:28.024Z,70.51
2018-04-08T23:54:55.567Z,70.41
2018-04-08T23:57:23.055Z,70.81
2018-04-08T23:59:50.538Z,70.88
